Time;durP1;ratioP1;P1;durP2;ratioP2;P2;SDS_P1;SDS_P2;PMS_P1;PMS_P2;Temp;Humidity;BMP_temperature;BMP_pressure;BME280_temperature;BME280_humidity;BME280_pressure;Samples;Min_cycle;Max_cycle;Signal;HPM_P1;HPM_P2
2021/04/26 00:00:11;;;;;;;0.50;0.30;;;19.80;40.90;;;;;;1015315;29;20031;-77
2021/04/26 00:00:42;;;;;;;0.90;0.40;;;19.80;41.00;;;;;;1016338;29;20016;-77
2021/04/26 00:01:13;;;;;;;13.20;0.75;;;19.80;40.90;;;;;;1015871;29;20020;-78
2021/04/26 00:01:43;;;;;;;1.02;0.40;;;19.80;40.80;;;;;;1012477;29;20648;-78
2021/04/26 00:02:14;;;;;;;0.60;0.38;;;19.80;40.80;;;;;;1016086;29;20051;-78
2021/04/26 00:02:44;;;;;;;0.60;0.40;;;19.80;40.80;;;;;;1013053;29;20119;-77
2021/04/26 00:03:15;;;;;;;1.25;0.30;;;19.80;40.80;;;;;;1016225;29;20732;-77
2021/04/26 00:03:45;;;;;;;1.48;0.45;;;19.80;40.80;;;;;;1015411;29;20074;-78
2021/04/26 00:04:16;;;;;;;0.32;0.30;;;19.80;40.90;;;;;;1019594;29;20027;-77
2021/04/26 00:04:47;;;;;;;0.90;0.38;;;19.80;40.90;;;;;;1023681;29;20035;-77
2021/04/26 00:05:17;;;;;;;0.85;0.43;;;19.80;40.90;;;;;;1019558;29;20031;-77
2021/04/26 00:05:48;;;;;;;1.00;0.30;;;19.70;40.90;;;;;;1008166;29;20048;-77
2021/04/26 00:06:19;;;;;;;0.38;0.30;;;19.70;40.90;;;;;;1012036;29;20395;-78
2021/04/26 00:06:49;;;;;;;2.35;0.45;;;19.70;40.90;;;;;;1015918;29;20039;-78
2021/04/26 00:07:20;;;;;;;0.50;0.30;;;19.70;40.90;;;;;;1016517;29;20624;-79
2021/04/26 00:07:51;;;;;;;0.40;0.30;;;19.70;40.90;;;;;;1015832;29;20481;-78
2021/04/26 00:08:21;;;;;;;0.43;0.30;;;19.70;40.80;;;;;;1019833;29;20036;-78
2021/04/26 00:08:52;;;;;;;3.13;0.30;;;19.70;40.90;;;;;;1019202;28;20031;-77
2021/04/26 00:09:22;;;;;;;0.40;0.30;;;19.80;40.90;;;;;;1012059;29;20043;-77
2021/04/26 00:09:53;;;;;;;1.02;0.32;;;19.80;40.80;;;;;;1019906;29;20027;-77
2021/04/26 00:10:24;;;;;;;0.60;0.40;;;19.70;40.80;;;;;;1019637;29;20028;-78
2021/04/26 00:10:54;;;;;;;0.63;0.35;;;19.80;40.80;;;;;;1011731;29;20091;-77
2021/04/26 00:11:25;;;;;;;0.55;0.40;;;19.70;40.80;;;;;;1008140;29;20390;-77
2021/04/26 00:11:55;;;;;;;0.63;0.32;;;19.80;40.80;;;;;;1011995;29;20028;-78
2021/04/26 00:12:26;;;;;;;2.08;0.40;;;19.80;40.80;;;;;;1011991;29;20021;-79
2021/04/26 00:12:56;;;;;;;1.17;0.40;;;19.80;40.80;;;;;;1007922;29;20017;-78
2021/04/26 00:13:27;;;;;;;1.30;0.50;;;19.80;41.40;;;;;;1012020;29;20025;-78
2021/04/26 00:13:58;;;;;;;0.40;0.40;;;19.80;40.90;;;;;;1019719;29;20016;-77
2021/04/26 00:14:28;;;;;;;1.50;0.60;;;19.70;40.80;;;;;;1012014;29;20020;-78
2021/04/26 00:14:59;;;;;;;5.22;0.55;;;19.80;41.00;;;;;;1011581;29;20075;-77
2021/04/26 00:15:29;;;;;;;2.38;0.50;;;19.70;40.90;;;;;;1007057;29;20037;-77
2021/04/26 00:16:00;;;;;;;0.80;0.40;;;19.70;40.90;;;;;;1015822;29;20075;-79
2021/04/26 00:16:30;;;;;;;0.75;0.32;;;19.70;40.90;;;;;;1007837;29;20021;-78
2021/04/26 00:17:01;;;;;;;1.02;0.40;;;19.70;40.90;;;;;;1011559;29;20114;-78
2021/04/26 00:17:32;;;;;;;0.65;0.40;;;19.70;41.00;;;;;;1011471;29;20025;-78
2021/04/26 00:18:02;;;;;;;0.75;0.47;;;19.70;40.90;;;;;;1015872;29;20084;-78
2021/04/26 00:18:33;;;;;;;0.47;0.40;;;19.80;40.90;;;;;;1011375;29;20032;-78
2021/04/26 00:19:04;;;;;;;0.80;0.40;;;19.70;40.90;;;;;;1011840;29;20077;-77
2021/04/26 00:19:34;;;;;;;0.80;0.47;;;19.70;40.80;;;;;;1008067;29;20049;-78
2021/04/26 00:20:07;;;;;;;0.40;0.30;;;19.70;40.90;;;;;;1019574;29;20366;-77
2021/04/26 00:20:37;;;;;;;2.67;0.40;;;19.70;40.90;;;;;;1015858;29;20525;-78
2021/04/26 00:21:08;;;;;;;0.28;0.20;;;19.70;40.90;;;;;;1011431;29;20024;-78
2021/04/26 00:21:39;;;;;;;0.85;0.40;;;19.70;40.90;;;;;;1011374;29;20025;-77
2021/04/26 00:22:09;;;;;;;0.73;0.40;;;19.80;40.90;;;;;;1010888;29;20016;-79
2021/04/26 00:22:40;;;;;;;0.43;0.32;;;19.70;40.80;;;;;;1010621;29;20028;-77
2021/04/26 00:23:10;;;;;;;1.10;0.40;;;19.80;40.90;;;;;;1011603;29;20039;-77
2021/04/26 00:23:41;;;;;;;0.93;0.40;;;19.80;40.80;;;;;;1007744;29;20017;-77
2021/04/26 00:24:11;;;;;;;1.30;0.40;;;19.70;40.80;;;;;;1011581;29;20415;-78
2021/04/26 00:24:42;;;;;;;0.70;0.40;;;19.80;40.80;;;;;;1008000;29;20226;-78
2021/04/26 00:25:13;;;;;;;1.38;0.40;;;19.70;40.80;;;;;;1015260;29;20067;-78
2021/04/26 00:25:43;;;;;;;0.50;0.30;;;19.70;40.70;;;;;;1008310;29;20044;-77
2021/04/26 00:26:14;;;;;;;1.58;0.40;;;19.70;40.80;;;;;;1015343;29;20030;-78
2021/04/26 00:26:44;;;;;;;1.95;0.30;;;19.80;40.80;;;;;;1019159;29;20301;-78
2021/04/26 00:27:15;;;;;;;1.00;0.47;;;19.80;40.80;;;;;;1015976;29;20020;-77
2021/04/26 00:27:45;;;;;;;1.55;0.30;;;19.80;40.80;;;;;;1008229;29;20498;-77
2021/04/26 00:28:16;;;;;;;1.77;0.40;;;19.70;40.80;;;;;;1011874;29;20416;-77
2021/04/26 00:28:46;;;;;;;0.98;0.30;;;19.70;40.80;;;;;;1015519;29;20031;-78
2021/04/26 00:29:17;;;;;;;0.70;0.30;;;19.70;40.80;;;;;;1011869;29;20032;-77
2021/04/26 00:29:47;;;;;;;1.63;0.30;;;19.70;40.80;;;;;;1015940;29;20024;-77
2021/04/26 00:30:19;;;;;;;0.50;0.30;;;19.70;40.90;;;;;;1010791;29;20029;-78
2021/04/26 00:30:50;;;;;;;1.08;0.40;;;19.70;40.90;;;;;;1008171;29;20122;-77
2021/04/26 00:31:20;;;;;;;1.10;0.30;;;19.70;40.90;;;;;;1012112;29;20108;-78
2021/04/26 00:31:51;;;;;;;2.72;0.30;;;19.80;40.90;;;;;;1011930;29;20521;-77
2021/04/26 00:32:22;;;;;;;0.82;0.30;;;19.70;40.90;;;;;;1009131;29;20774;-77
2021/04/26 00:32:52;;;;;;;2.47;0.40;;;19.70;40.90;;;;;;1012067;29;20041;-79
2021/04/26 00:33:23;;;;;;;1.20;0.40;;;19.70;40.90;;;;;;1019625;29;20082;-78
2021/04/26 00:33:53;;;;;;;2.67;0.30;;;19.70;40.90;;;;;;1022988;28;20151;-78
2021/04/26 00:34:24;;;;;;;1.85;0.30;;;19.80;40.90;;;;;;1015564;29;20418;-78
2021/04/26 00:34:54;;;;;;;0.98;0.38;;;19.70;40.90;;;;;;1016012;29;20028;-78
2021/04/26 00:35:25;;;;;;;0.38;0.30;;;19.70;40.80;;;;;;1023103;28;20031;-78
2021/04/26 00:35:56;;;;;;;0.38;0.30;;;19.70;40.90;;;;;;1015548;29;20398;-77
2021/04/26 00:36:26;;;;;;;0.38;0.30;;;19.70;40.90;;;;;;1015553;29;20021;-77
2021/04/26 00:36:57;;;;;;;0.50;0.38;;;19.70;40.80;;;;;;1007369;29;20658;-77
2021/04/26 00:37:28;;;;;;;2.40;0.47;;;19.70;40.80;;;;;;1014975;29;20031;-77
2021/04/26 00:37:58;;;;;;;1.45;0.30;;;19.70;40.80;;;;;;1015412;29;20064;-78
2021/04/26 00:38:29;;;;;;;0.32;0.30;;;19.70;40.80;;;;;;1011373;29;20028;-78
2021/04/26 00:38:59;;;;;;;0.55;0.30;;;19.70;40.80;;;;;;1007718;29;20019;-79
2021/04/26 00:39:30;;;;;;;1.02;0.30;;;19.70;40.80;;;;;;1015620;29;20009;-77
2021/04/26 00:40:01;;;;;;;0.20;0.20;;;19.70;40.80;;;;;;1015676;29;20016;-77
2021/04/26 00:40:31;;;;;;;0.80;0.30;;;19.70;40.80;;;;;;1015823;29;20027;-78
2021/04/26 00:41:02;;;;;;;0.35;0.30;;;19.80;40.90;;;;;;1015598;29;20028;-78
2021/04/26 00:41:33;;;;;;;0.45;0.40;;;19.70;40.80;;;;;;1015744;29;20021;-77
2021/04/26 00:42:03;;;;;;;1.02;0.35;;;19.70;40.80;;;;;;1019574;29;20024;-78
2021/04/26 00:42:34;;;;;;;2.20;0.50;;;19.70;40.80;;;;;;1019647;29;20024;-77
2021/04/26 00:43:05;;;;;;;0.40;0.32;;;19.70;40.80;;;;;;1011839;29;20508;-77
2021/04/26 00:43:35;;;;;;;1.10;0.30;;;19.70;40.80;;;;;;1011302;29;20020;-77
2021/04/26 00:44:05;;;;;;;9.52;0.40;;;19.70;40.80;;;;;;1019147;29;20047;-78
2021/04/26 00:44:36;;;;;;;0.40;0.30;;;19.70;40.80;;;;;;1019522;29;20048;-77
2021/04/26 00:45:09;;;;;;;2.13;0.30;;;19.70;40.80;;;;;;1014617;29;20020;-78
2021/04/26 00:45:39;;;;;;;0.85;0.40;;;19.70;40.80;;;;;;1019674;29;20043;-78
2021/04/26 00:46:11;;;;;;;0.50;0.30;;;19.70;40.80;;;;;;1015454;29;20617;-77
2021/04/26 00:46:41;;;;;;;0.35;0.30;;;19.70;40.80;;;;;;1019974;29;20015;-77
2021/04/26 00:47:12;;;;;;;0.70;0.32;;;19.70;40.80;;;;;;1015782;29;20027;-77
2021/04/26 00:47:44;;;;;;;0.77;0.40;;;19.70;40.80;;;;;;1023790;29;20468;-78
2021/04/26 00:48:14;;;;;;;1.38;0.40;;;19.70;40.80;;;;;;1019129;29;20015;-79
2021/04/26 00:48:45;;;;;;;0.80;0.40;;;19.70;40.70;;;;;;1019244;28;20035;-78
2021/04/26 00:49:15;;;;;;;1.65;0.30;;;19.70;40.80;;;;;;1016024;29;20064;-78
2021/04/26 00:49:46;;;;;;;0.55;0.35;;;19.70;40.80;;;;;;1015673;29;20053;-77
2021/04/26 00:50:24;;;;;;;0.63;0.38;;;19.70;40.70;;;;;;1015784;29;20430;-79
2021/04/26 00:50:54;;;;;;;0.45;0.30;;;19.70;40.70;;;;;;1015639;29;20099;-79
2021/04/26 00:51:25;;;;;;;1.52;0.35;;;19.70;40.80;;;;;;1011908;29;20021;-77
2021/04/26 00:51:55;;;;;;;1.33;0.30;;;19.70;40.70;;;;;;1008082;29;20025;-78
2021/04/26 00:52:26;;;;;;;0.75;0.40;;;19.70;40.70;;;;;;1018578;29;20087;-77
2021/04/26 00:52:56;;;;;;;0.80;0.40;;;19.70;40.80;;;;;;1019709;29;20083;-77
2021/04/26 00:53:27;;;;;;;0.70;0.40;;;19.70;40.80;;;;;;1011569;29;20477;-78
2021/04/26 00:53:58;;;;;;;0.50;0.38;;;19.70;40.70;;;;;;1019760;29;20051;-77
2021/04/26 00:54:28;;;;;;;0.90;0.32;;;19.70;40.80;;;;;;1019286;29;20286;-77
2021/04/26 00:54:59;;;;;;;0.88;0.30;;;19.70;40.80;;;;;;1011619;29;20023;-77
2021/04/26 00:55:34;;;;;;;0.65;0.40;;;19.60;40.70;;;;;;1011068;29;20119;-77
2021/04/26 00:56:05;;;;;;;1.75;0.47;;;19.70;40.90;;;;;;1015676;29;20082;-78
2021/04/26 00:56:35;;;;;;;0.60;0.38;;;19.70;40.80;;;;;;1011912;29;20020;-77
2021/04/26 00:57:06;;;;;;;0.65;0.40;;;19.70;40.80;;;;;;1011902;29;20108;-77
2021/04/26 00:57:36;;;;;;;0.47;0.30;;;19.70;40.80;;;;;;1015833;29;20721;-77
2021/04/26 00:58:07;;;;;;;0.52;0.32;;;19.70;40.80;;;;;;1011839;29;20024;-77
2021/04/26 00:58:38;;;;;;;0.68;0.30;;;19.70;40.80;;;;;;1015237;29;20108;-77
2021/04/26 00:59:08;;;;;;;0.55;0.40;;;19.70;40.80;;;;;;1015561;29;20034;-77
2021/04/26 00:59:39;;;;;;;0.88;0.50;;;19.70;40.70;;;;;;1015804;29;20024;-79
2021/04/26 01:00:10;;;;;;;1.00;0.40;;;19.70;41.20;;;;;;1010860;29;20032;-78
2021/04/26 01:00:40;;;;;;;0.90;0.40;;;19.70;40.80;;;;;;1011812;29;20434;-77
2021/04/26 01:01:11;;;;;;;0.50;0.30;;;19.70;40.90;;;;;;1019816;29;20105;-78
2021/04/26 01:01:41;;;;;;;0.68;0.40;;;19.70;40.90;;;;;;1011785;29;20087;-78
2021/04/26 01:02:12;;;;;;;1.50;0.50;;;19.70;40.80;;;;;;1015729;29;20742;-78
2021/04/26 01:02:42;;;;;;;0.57;0.30;;;19.70;40.80;;;;;;1015730;29;20027;-78
2021/04/26 01:03:13;;;;;;;0.63;0.30;;;19.70;40.80;;;;;;1023790;29;20020;-77
2021/04/26 01:03:43;;;;;;;1.80;0.40;;;19.70;40.80;;;;;;1027395;28;20046;-78
2021/04/26 01:04:14;;;;;;;1.42;0.38;;;19.70;40.80;;;;;;1023707;29;20094;-78
2021/04/26 01:04:44;;;;;;;0.52;0.40;;;19.70;40.80;;;;;;1019414;29;20413;-78
2021/04/26 01:05:18;;;;;;;0.40;0.32;;;19.70;40.80;;;;;;1015253;29;20019;-78
2021/04/26 01:05:49;;;;;;;0.63;0.40;;;19.70;40.80;;;;;;1019589;29;20012;-77
2021/04/26 01:06:19;;;;;;;0.30;0.30;;;19.70;40.80;;;;;;1023329;28;20543;-78
2021/04/26 01:06:50;;;;;;;0.40;0.30;;;19.70;40.90;;;;;;1018626;29;20008;-77
2021/04/26 01:07:20;;;;;;;0.88;0.30;;;19.70;40.90;;;;;;1015509;29;20020;-78
2021/04/26 01:07:51;;;;;;;0.70;0.38;;;19.60;41.00;;;;;;1015739;29;20111;-77
2021/04/26 01:08:21;;;;;;;1.17;0.40;;;19.70;41.00;;;;;;1023609;28;20426;-77
2021/04/26 01:08:52;;;;;;;4.65;0.47;;;19.60;40.90;;;;;;1022834;28;20035;-78
2021/04/26 01:09:22;;;;;;;0.40;0.40;;;19.60;40.90;;;;;;1012707;29;20027;-77
2021/04/26 01:09:53;;;;;;;0.77;0.40;;;19.60;40.90;;;;;;1003876;29;20021;-77
2021/04/26 01:10:27;;;;;;;1.42;0.50;;;19.70;41.00;;;;;;1004290;29;20021;-78
2021/04/26 01:10:58;;;;;;;2.38;0.30;;;19.70;41.00;;;;;;1007514;29;20017;-77
2021/04/26 01:11:49;;;;;;;1.45;0.63;;;19.70;41.00;;;;;;1007845;29;20538;-77
2021/04/26 01:12:52;;;;;;;0.63;0.50;;;19.70;41.00;;;;;;1018357;29;20016;-78
2021/04/26 01:13:34;;;;;;;0.73;0.40;;;19.60;41.00;;;;;;1015600;28;20092;-77
2021/04/26 01:14:23;;;;;;;0.85;0.47;;;19.60;41.00;;;;;;1017718;29;20034;-77
2021/04/26 01:15:10;;;;;;;1.08;0.50;;;19.60;41.00;;;;;;1018628;29;20568;-77
2021/04/26 01:16:00;;;;;;;0.90;0.40;;;19.60;41.00;;;;;;1022359;28;20027;-77
2021/04/26 01:16:41;;;;;;;1.40;0.73;;;19.60;41.00;;;;;;1023419;29;20163;-77
2021/04/26 01:17:16;;;;;;;0.40;0.40;;;19.60;41.00;;;;;;1018767;29;20039;-79
2021/04/26 01:17:59;;;;;;;0.70;0.47;;;19.60;41.00;;;;;;1019327;29;20023;-78
2021/04/26 01:18:35;;;;;;;0.95;0.40;;;19.60;41.00;;;;;;1015176;29;20115;-78
2021/04/26 01:19:18;;;;;;;0.50;0.40;;;19.60;41.00;;;;;;1027359;28;20015;-78
2021/04/26 01:20:22;;;;;;;0.77;0.50;;;19.60;41.00;;;;;;1015639;29;20060;-77
2021/04/26 01:21:14;;;;;;;1.35;0.60;;;19.60;41.00;;;;;;1011794;29;20201;-77
2021/04/26 01:22:12;;;;;;;1.35;0.68;;;19.60;40.90;;;;;;1022930;28;20046;-78
2021/04/26 01:22:50;;;;;;;1.00;0.70;;;19.70;41.00;;;;;;1021141;29;20049;-78
2021/04/26 01:23:55;;;;;;;0.88;0.50;;;19.60;40.90;;;;;;1019661;29;20016;-79
2021/04/26 01:24:47;;;;;;;0.88;0.60;;;19.70;41.00;;;;;;1015494;29;20059;-77
2021/04/26 01:25:22;;;;;;;1.02;0.63;;;19.60;40.90;;;;;;1019110;29;20580;-77
2021/04/26 01:25:52;;;;;;;0.88;0.60;;;19.60;41.00;;;;;;1011315;29;20020;-77
2021/04/26 01:26:31;;;;;;;0.82;0.50;;;19.60;41.00;;;;;;1015779;29;20024;-78
2021/04/26 01:27:24;;;;;;;1.35;0.75;;;19.60;41.00;;;;;;1019196;29;20448;-79
2021/04/26 01:28:32;;;;;;;0.90;0.60;;;19.60;41.00;;;;;;1010889;29;20096;-77
2021/04/26 01:29:27;;;;;;;1.70;0.55;;;19.60;41.00;;;;;;1014849;29;20380;-77
2021/04/26 01:29:58;;;;;;;2.35;0.70;;;19.60;41.00;;;;;;1015423;29;20012;-78
2021/04/26 01:30:30;;;;;;;1.67;0.60;;;19.60;41.00;;;;;;1014829;29;20385;-77
2021/04/26 01:31:26;;;;;;;0.95;0.70;;;19.60;41.00;;;;;;1015270;29;20667;-77
2021/04/26 01:32:32;;;;;;;1.30;0.60;;;19.60;41.00;;;;;;1014520;29;20438;-77
2021/04/26 01:33:07;;;;;;;1.35;0.75;;;19.60;41.00;;;;;;1015512;29;20052;-78
2021/04/26 01:33:39;;;;;;;1.73;0.90;;;19.60;41.00;;;;;;1020253;29;20711;-79
2021/04/26 01:34:10;;;;;;;1.45;0.80;;;19.60;41.10;;;;;;1019419;29;20023;-77
2021/04/26 01:34:40;;;;;;;0.85;0.52;;;19.60;41.10;;;;;;1014793;29;20438;-78
2021/04/26 01:35:15;;;;;;;1.08;0.73;;;19.60;41.10;;;;;;1015129;29;20127;-79
2021/04/26 01:35:46;;;;;;;1.35;0.73;;;19.60;41.10;;;;;;1015522;29;20040;-78
2021/04/26 01:36:19;;;;;;;1.00;0.80;;;19.60;41.10;;;;;;1015536;29;20020;-77
2021/04/26 01:36:49;;;;;;;1.25;0.80;;;19.60;41.10;;;;;;1019381;29;20083;-78
2021/04/26 01:37:20;;;;;;;1.63;0.68;;;19.60;41.00;;;;;;1019595;29;20079;-77
2021/04/26 01:37:55;;;;;;;0.90;0.60;;;19.60;41.10;;;;;;1019470;29;20408;-77
2021/04/26 01:38:28;;;;;;;0.98;0.70;;;19.60;41.00;;;;;;1011310;29;20025;-78
2021/04/26 01:38:59;;;;;;;1.10;0.70;;;19.60;41.00;;;;;;1019298;29;20472;-78
2021/04/26 01:39:30;;;;;;;1.67;0.80;;;19.60;41.00;;;;;;1011433;29;20048;-78
2021/04/26 01:40:01;;;;;;;1.77;0.80;;;19.60;41.00;;;;;;1003812;29;20029;-77
2021/04/26 01:40:32;;;;;;;1.02;0.70;;;19.60;41.00;;;;;;1015613;29;20019;-79
2021/04/26 01:41:02;;;;;;;1.08;0.70;;;19.60;41.10;;;;;;1011742;29;20595;-77
2021/04/26 01:41:34;;;;;;;2.05;0.73;;;19.60;41.00;;;;;;1011928;29;20013;-79
2021/04/26 01:42:04;;;;;;;1.00;0.60;;;19.60;40.90;;;;;;1015523;29;20012;-77
2021/04/26 01:42:35;;;;;;;0.82;0.65;;;19.60;40.90;;;;;;1011514;29;20476;-78
2021/04/26 01:43:06;;;;;;;1.90;0.88;;;19.70;41.00;;;;;;1011546;29;20009;-79
2021/04/26 01:43:37;;;;;;;0.85;0.68;;;19.70;41.00;;;;;;1019089;28;20012;-78
2021/04/26 01:44:07;;;;;;;1.48;0.80;;;19.60;40.90;;;;;;1011598;29;20270;-78
2021/04/26 01:44:38;;;;;;;1.20;0.70;;;19.70;41.00;;;;;;1011473;29;20021;-78
2021/04/26 01:45:10;;;;;;;1.08;0.70;;;19.70;41.00;;;;;;1010778;29;20020;-79
2021/04/26 01:45:41;;;;;;;0.80;0.70;;;19.70;41.00;;;;;;1011652;29;20021;-77
2021/04/26 01:46:12;;;;;;;1.23;0.77;;;19.70;41.00;;;;;;1011775;29;20024;-77
2021/04/26 01:46:42;;;;;;;1.25;0.70;;;19.70;41.00;;;;;;1015593;29;20512;-78
2021/04/26 01:47:13;;;;;;;1.65;0.60;;;19.60;41.00;;;;;;1015899;29;20568;-78
2021/04/26 01:47:45;;;;;;;1.75;0.60;;;19.70;41.10;;;;;;1011948;29;20394;-78
2021/04/26 01:48:16;;;;;;;1.17;0.60;;;19.70;41.10;;;;;;1015651;29;20016;-79
2021/04/26 01:48:47;;;;;;;1.33;0.63;;;19.70;41.10;;;;;;1011745;29;20032;-78
2021/04/26 01:49:21;;;;;;;1.52;0.73;;;19.60;41.10;;;;;;1016222;29;20031;-78
2021/04/26 01:49:51;;;;;;;2.17;0.60;;;19.70;41.20;;;;;;1016554;29;20024;-78
2021/04/26 01:50:23;;;;;;;1.10;0.73;;;19.70;41.20;;;;;;1012264;29;20163;-79
2021/04/26 01:50:54;;;;;;;1.85;0.70;;;19.70;41.20;;;;;;1012388;29;20451;-77
2021/04/26 01:51:25;;;;;;;1.27;0.80;;;19.60;41.20;;;;;;1019592;29;20082;-79
2021/04/26 01:51:55;;;;;;;1.52;0.65;;;19.70;41.30;;;;;;1013372;29;20037;-77
2021/04/26 01:52:26;;;;;;;2.13;0.70;;;19.60;41.20;;;;;;1012536;29;20032;-78
2021/04/26 01:52:56;;;;;;;2.08;0.90;;;19.60;41.30;;;;;;1020251;29;20111;-79
2021/04/26 01:53:27;;;;;;;0.82;0.70;;;19.60;41.30;;;;;;1019907;28;20440;-76
2021/04/26 01:53:57;;;;;;;3.00;0.70;;;19.70;41.30;;;;;;1016192;29;20091;-78
2021/04/26 01:54:28;;;;;;;0.70;0.52;;;19.70;41.30;;;;;;1016449;29;20570;-79
2021/04/26 01:54:59;;;;;;;2.50;0.90;;;19.60;41.20;;;;;;1015734;29;20028;-78
2021/04/26 01:55:30;;;;;;;1.38;0.80;;;19.60;41.10;;;;;;1011972;29;20052;-79
2021/04/26 01:56:02;;;;;;;2.17;0.57;;;19.60;41.20;;;;;;1019951;29;20028;-79
2021/04/26 01:56:34;;;;;;;1.35;0.70;;;19.60;41.20;;;;;;1016198;29;20016;-78
2021/04/26 01:57:05;;;;;;;1.20;0.80;;;19.60;41.20;;;;;;1016990;29;20020;-78
2021/04/26 01:57:36;;;;;;;0.95;0.70;;;19.60;41.30;;;;;;1020296;29;20024;-77
2021/04/26 01:58:07;;;;;;;0.95;0.65;;;19.60;41.30;;;;;;1020454;29;20042;-78
2021/04/26 01:58:41;;;;;;;2.17;0.93;;;19.60;41.30;;;;;;1019705;29;20051;-79
2021/04/26 01:59:12;;;;;;;1.33;0.70;;;19.60;41.30;;;;;;1024278;29;20494;-77
2021/04/26 01:59:42;;;;;;;1.38;0.80;;;19.60;41.30;;;;;;1020324;29;20024;-77
2021/04/26 02:00:30;;;;;;;0.95;0.70;;;19.60;41.30;;;;;;1015079;29;20052;-79
2021/04/26 02:01:01;;;;;;;3.08;0.82;;;19.60;41.30;;;;;;1016204;29;20115;-77
2021/04/26 02:01:31;;;;;;;2.03;0.80;;;19.60;41.30;;;;;;1016257;29;20698;-78
2021/04/26 02:02:02;;;;;;;1.45;0.80;;;19.60;41.30;;;;;;1012336;29;20763;-77
2021/04/26 02:02:33;;;;;;;2.35;0.70;;;19.60;41.30;;;;;;1016407;29;20497;-78
2021/04/26 02:03:03;;;;;;;0.60;0.60;;;19.60;41.30;;;;;;1024127;28;20480;-77
2021/04/26 02:03:34;;;;;;;0.88;0.65;;;19.60;41.30;;;;;;1019780;29;20481;-78
2021/04/26 02:04:05;;;;;;;2.83;0.80;;;19.60;41.30;;;;;;1008392;29;20017;-78
2021/04/26 02:04:36;;;;;;;1.35;0.70;;;19.60;41.30;;;;;;1012281;29;20441;-77
2021/04/26 02:05:07;;;;;;;1.00;0.55;;;19.60;41.30;;;;;;1019764;29;20020;-78
2021/04/26 02:05:37;;;;;;;1.38;0.68;;;19.60;41.30;;;;;;1020129;28;20046;-77
2021/04/26 02:06:08;;;;;;;1.15;0.52;;;19.60;41.20;;;;;;1012403;29;20047;-77
2021/04/26 02:06:38;;;;;;;1.05;0.77;;;19.60;41.20;;;;;;1016346;29;20064;-77
2021/04/26 02:07:10;;;;;;;1.20;0.80;;;19.60;41.20;;;;;;1015678;29;20051;-78
2021/04/26 02:07:42;;;;;;;2.35;0.77;;;19.60;41.20;;;;;;1008536;29;20471;-78
2021/04/26 02:08:13;;;;;;;1.52;0.80;;;19.70;41.20;;;;;;1016433;29;20048;-78
2021/04/26 02:08:44;;;;;;;1.23;0.80;;;19.60;41.10;;;;;;1015801;29;20441;-78
2021/04/26 02:09:14;;;;;;;0.93;0.65;;;19.70;41.20;;;;;;1016215;29;20028;-78
2021/04/26 02:09:45;;;;;;;1.63;0.68;;;19.60;41.10;;;;;;1016356;29;20381;-78
2021/04/26 02:10:20;;;;;;;1.00;0.63;;;19.70;41.20;;;;;;1019876;29;20031;-78
2021/04/26 02:10:51;;;;;;;2.53;0.80;;;19.60;41.10;;;;;;1020139;28;20128;-77
2021/04/26 02:11:21;;;;;;;1.00;0.65;;;19.60;41.10;;;;;;1012416;29;20053;-78
2021/04/26 02:11:52;;;;;;;1.30;0.60;;;19.60;41.20;;;;;;1016406;29;20071;-78
2021/04/26 02:12:22;;;;;;;1.02;0.70;;;19.60;41.20;;;;;;1020316;29;20043;-78
2021/04/26 02:12:53;;;;;;;0.93;0.70;;;19.60;41.10;;;;;;1020196;29;20042;-78
2021/04/26 02:13:24;;;;;;;1.02;0.70;;;19.70;41.20;;;;;;1020228;29;20496;-77
2021/04/26 02:13:55;;;;;;;1.20;0.75;;;19.60;41.00;;;;;;1023728;28;20027;-78
2021/04/26 02:14:26;;;;;;;1.02;0.63;;;19.70;41.00;;;;;;1016440;29;20028;-78
2021/04/26 02:14:56;;;;;;;0.98;0.60;;;19.70;41.00;;;;;;1011886;29;20033;-77
2021/04/26 02:15:28;;;;;;;1.30;0.52;;;19.60;41.00;;;;;;1019029;29;20067;-78
2021/04/26 02:15:59;;;;;;;1.25;0.70;;;19.70;41.10;;;;;;1012293;29;20025;-77
2021/04/26 02:16:30;;;;;;;1.73;0.68;;;19.60;41.10;;;;;;1016107;29;20059;-78
2021/04/26 02:17:00;;;;;;;1.98;0.77;;;19.70;41.60;;;;;;1012404;29;20487;-78
2021/04/26 02:17:31;;;;;;;2.72;0.80;;;19.60;41.10;;;;;;1012363;29;20025;-77
2021/04/26 02:18:01;;;;;;;1.27;0.80;;;19.60;41.20;;;;;;1008191;29;20033;-77
2021/04/26 02:18:33;;;;;;;1.35;0.80;;;19.60;41.20;;;;;;1007694;29;20136;-78
2021/04/26 02:19:03;;;;;;;1.80;0.50;;;19.60;41.90;;;;;;1016182;29;20028;-78
2021/04/26 02:19:34;;;;;;;0.93;0.70;;;19.60;41.30;;;;;;1012555;29;20419;-77
2021/04/26 02:20:05;;;;;;;1.45;0.80;;;19.60;41.20;;;;;;1016025;29;20040;-78
2021/04/26 02:20:36;;;;;;;2.08;0.70;;;19.60;41.20;;;;;;1020261;29;20036;-77
2021/04/26 02:21:07;;;;;;;2.13;0.90;;;19.60;41.20;;;;;;1012257;29;20438;-78
2021/04/26 02:21:39;;;;;;;1.13;0.70;;;19.60;41.20;;;;;;1012347;29;20135;-77
2021/04/26 02:22:10;;;;;;;2.13;0.80;;;19.60;41.20;;;;;;1016419;29;20027;-78
2021/04/26 02:22:41;;;;;;;1.52;0.68;;;19.60;41.10;;;;;;1016551;29;20032;-78
2021/04/26 02:23:12;;;;;;;1.77;0.60;;;19.60;41.00;;;;;;1012086;29;20032;-78
2021/04/26 02:23:43;;;;;;;0.73;0.50;;;19.60;41.10;;;;;;1012023;29;20029;-78
2021/04/26 02:24:13;;;;;;;1.92;0.85;;;19.60;41.10;;;;;;1012538;29;20031;-77
2021/04/26 02:24:44;;;;;;;1.77;0.70;;;19.60;41.00;;;;;;1013826;29;20557;-78
2021/04/26 02:25:15;;;;;;;3.08;0.60;;;19.60;41.00;;;;;;1016395;29;20035;-77
2021/04/26 02:25:45;;;;;;;0.75;0.60;;;19.60;40.90;;;;;;1023938;28;20058;-78
2021/04/26 02:26:16;;;;;;;0.85;0.60;;;19.70;41.00;;;;;;1018870;29;20107;-77
2021/04/26 02:26:46;;;;;;;1.30;0.60;;;19.60;41.00;;;;;;1016140;29;20693;-78
2021/04/26 02:27:17;;;;;;;1.80;1.05;;;19.60;40.90;;;;;;1020055;29;20104;-77
2021/04/26 02:27:48;;;;;;;2.72;0.70;;;19.60;41.00;;;;;;1020269;29;20043;-78
2021/04/26 02:28:18;;;;;;;1.48;0.80;;;19.60;41.00;;;;;;1016135;29;20024;-77
2021/04/26 02:28:49;;;;;;;1.02;0.60;;;19.60;41.00;;;;;;1023619;28;20023;-77
2021/04/26 02:29:19;;;;;;;1.10;0.70;;;19.60;41.10;;;;;;1022051;28;20019;-77
2021/04/26 02:29:51;;;;;;;1.50;0.68;;;19.60;41.00;;;;;;1008328;29;20029;-77
2021/04/26 02:30:22;;;;;;;0.88;0.60;;;19.60;41.00;;;;;;1007375;29;20063;-78
2021/04/26 02:30:57;;;;;;;2.38;0.88;;;19.60;41.00;;;;;;1020020;29;20444;-78
2021/04/26 02:31:27;;;;;;;0.93;0.70;;;19.60;41.00;;;;;;1020166;29;20074;-77
2021/04/26 02:31:59;;;;;;;1.10;0.77;;;19.60;41.10;;;;;;1011175;29;20028;-78
2021/04/26 02:32:31;;;;;;;1.15;0.50;;;19.60;41.10;;;;;;1008344;29;20013;-77
2021/04/26 02:33:24;;;;;;;0.93;0.55;;;19.50;41.10;;;;;;1008411;29;20151;-78
2021/04/26 02:33:57;;;;;;;0.93;0.65;;;19.60;41.20;;;;;;1011101;29;20490;-77
2021/04/26 02:34:31;;;;;;;1.35;0.70;;;19.60;41.20;;;;;;1011374;29;20028;-77
2021/04/26 02:35:01;;;;;;;1.55;0.50;;;19.60;41.20;;;;;;1012039;29;20112;-78
2021/04/26 02:35:50;;;;;;;1.50;0.70;;;19.60;41.20;;;;;;1012187;29;20028;-77
2021/04/26 02:36:25;;;;;;;1.55;0.70;;;19.50;41.10;;;;;;1016048;29;20087;-77
2021/04/26 02:37:08;;;;;;;1.27;0.63;;;19.60;41.20;;;;;;1015808;29;20020;-78
2021/04/26 02:37:43;;;;;;;1.55;0.70;;;19.50;41.20;;;;;;1020236;29;20396;-77
2021/04/26 02:38:25;;;;;;;2.60;0.80;;;19.50;41.20;;;;;;1015751;29;20017;-79
2021/04/26 02:38:55;;;;;;;2.03;0.63;;;19.50;41.20;;;;;;1014975;29;20084;-78
2021/04/26 02:39:26;;;;;;;1.02;0.70;;;19.50;41.20;;;;;;1016374;29;20541;-79
2021/04/26 02:40:00;;;;;;;1.25;0.60;;;19.50;41.20;;;;;;1016081;29;20020;-78
2021/04/26 02:40:38;;;;;;;0.70;0.50;;;19.50;41.20;;;;;;1016097;29;20016;-78
2021/04/26 02:41:11;;;;;;;1.30;0.80;;;19.50;41.20;;;;;;1015964;29;20115;-78
2021/04/26 02:41:43;;;;;;;1.33;0.80;;;19.50;41.20;;;;;;1015794;29;20102;-77
2021/04/26 02:42:13;;;;;;;0.85;0.63;;;19.50;41.30;;;;;;1016304;29;20028;-78
2021/04/26 02:42:45;;;;;;;0.90;0.60;;;19.50;41.30;;;;;;1016063;29;20370;-78
2021/04/26 02:43:16;;;;;;;0.82;0.70;;;19.50;41.30;;;;;;1023520;29;20526;-77
2021/04/26 02:43:49;;;;;;;2.00;0.85;;;19.50;41.20;;;;;;1013548;29;20028;-78
2021/04/26 02:44:24;;;;;;;1.30;0.60;;;19.50;41.20;;;;;;1015551;29;20046;-77
2021/04/26 02:44:55;;;;;;;0.90;0.60;;;19.50;41.20;;;;;;1008197;29;20678;-77
2021/04/26 02:45:26;;;;;;;1.45;0.60;;;19.50;41.20;;;;;;1011272;29;20029;-78
2021/04/26 02:45:58;;;;;;;1.38;0.70;;;19.50;41.30;;;;;;1016132;29;20024;-77
2021/04/26 02:46:29;;;;;;;0.80;0.65;;;19.50;41.20;;;;;;1020141;29;20035;-77
2021/04/26 02:47:08;;;;;;;1.20;0.80;;;19.50;41.20;;;;;;1019924;28;20488;-78
2021/04/26 02:47:39;;;;;;;2.70;1.20;;;19.50;41.20;;;;;;1020244;29;20027;-78
2021/04/26 02:48:10;;;;;;;2.45;0.60;;;19.50;41.30;;;;;;1019924;29;20031;-79
2021/04/26 02:48:44;;;;;;;1.15;0.80;;;19.50;41.30;;;;;;1011666;29;20092;-77
2021/04/26 02:49:14;;;;;;;0.95;0.50;;;19.50;41.30;;;;;;1000860;29;20439;-78
2021/04/26 02:49:45;;;;;;;0.90;0.70;;;19.50;41.20;;;;;;1012359;29;20056;-78
2021/04/26 02:50:18;;;;;;;1.10;0.70;;;19.50;41.30;;;;;;1016244;29;20027;-78
2021/04/26 02:50:53;;;;;;;0.70;0.70;;;19.50;41.20;;;;;;1011695;29;20697;-77